createdAt,value
2018-12-05T00:00:45.953Z,4.50
2018-12-05T00:03:14.193Z,4.30
2018-12-05T00:05:45.480Z,4.30
2018-12-05T00:08:13.818Z,4.20
2018-12-05T00:10:43.158Z,4.20
2018-12-05T00:13:11.462Z,4.10
2018-12-05T00:15:39.720Z,4.20
2018-12-05T00:18:08.059Z,4.00
2018-12-05T00:20:36.593Z,3.70
2018-12-05T00:23:05.125Z,3.70
2018-12-05T00:25:33.794Z,3.60
2018-12-05T00:28:02.332Z,3.70
2018-12-05T00:30:30.809Z,3.80
2018-12-05T00:32:59.028Z,3.80
2018-12-05T00:35:27.312Z,3.90
2018-12-05T00:37:55.688Z,4.00
2018-12-05T00:40:23.909Z,3.90
2018-12-05T00:42:52.194Z,3.90
2018-12-05T00:45:20.985Z,3.90
2018-12-05T00:47:49.210Z,3.80
2018-12-05T00:50:18.013Z,3.60
2018-12-05T00:52:46.269Z,3.60
2018-12-05T00:55:14.501Z,3.70
2018-12-05T00:57:42.752Z,3.80
2018-12-05T01:00:11.133Z,3.80
2018-12-05T01:02:39.460Z,3.80
2018-12-05T01:05:07.985Z,3.80
2018-12-05T01:07:36.256Z,3.80
2018-12-05T01:10:05.342Z,3.90
2018-12-05T01:12:33.668Z,3.90
2018-12-05T01:15:01.937Z,3.90
2018-12-05T01:17:30.373Z,3.90
2018-12-05T01:19:58.628Z,3.80
2018-12-05T01:22:26.925Z,3.90
2018-12-05T01:24:55.183Z,3.70
2018-12-05T01:27:23.432Z,3.80
2018-12-05T01:29:51.689Z,3.70
2018-12-05T01:32:19.942Z,3.70
2018-12-05T01:34:48.189Z,3.70
2018-12-05T01:37:16.414Z,3.70
2018-12-05T01:39:44.667Z,3.70
2018-12-05T01:42:12.944Z,3.50
2018-12-05T01:44:41.324Z,3.60
2018-12-05T01:47:09.594Z,3.50
2018-12-05T01:49:38.073Z,3.50
2018-12-05T01:52:06.336Z,3.50
2018-12-05T01:54:35.717Z,3.50
2018-12-05T01:57:04.000Z,3.50
2018-12-05T01:59:34.425Z,3.50
2018-12-05T02:02:02.765Z,3.40
2018-12-05T02:04:31.926Z,3.50
2018-12-05T02:07:00.227Z,3.60
2018-12-05T02:09:28.519Z,3.50
2018-12-05T02:11:56.828Z,3.40
2018-12-05T02:14:25.100Z,3.40
2018-12-05T02:16:53.326Z,3.40
2018-12-05T02:19:21.563Z,3.50
2018-12-05T02:21:49.835Z,3.40
2018-12-05T02:24:18.134Z,3.40
2018-12-05T02:26:46.373Z,3.50
2018-12-05T02:29:14.709Z,3.20
2018-12-05T02:31:42.946Z,3.20
2018-12-05T02:34:11.226Z,3.20
2018-12-05T02:36:39.489Z,3.20
2018-12-05T02:39:08.952Z,3.30
2018-12-05T02:41:37.511Z,3.20
2018-12-05T02:44:05.868Z,3.30
2018-12-05T02:46:34.786Z,3.20
2018-12-05T02:49:03.025Z,3.20
2018-12-05T02:51:32.958Z,3.30
2018-12-05T02:54:01.214Z,3.30
2018-12-05T02:56:29.474Z,3.30
2018-12-05T02:58:57.794Z,3.30
2018-12-05T03:01:26.094Z,3.10
2018-12-05T03:03:54.683Z,2.90
2018-12-05T03:06:22.924Z,3.00
2018-12-05T03:08:51.255Z,2.90
2018-12-05T03:11:19.488Z,3.00
2018-12-05T03:13:47.769Z,3.00
2018-12-05T03:16:16.029Z,2.90
2018-12-05T03:18:44.249Z,2.90
2018-12-05T03:21:12.580Z,2.90
2018-12-05T03:23:40.857Z,2.80
2018-12-05T03:26:09.273Z,2.90
2018-12-05T03:28:37.721Z,2.90
2018-12-05T03:31:05.947Z,2.90
2018-12-05T03:33:34.855Z,2.80
2018-12-05T03:36:03.186Z,2.70
2018-12-05T03:38:32.530Z,2.80
2018-12-05T03:41:00.739Z,2.80
2018-12-05T03:43:28.986Z,2.70
2018-12-05T03:45:57.538Z,2.80
2018-12-05T03:48:25.799Z,2.80
2018-12-05T03:50:54.392Z,2.70
2018-12-05T03:53:22.680Z,2.60
2018-12-05T03:55:50.913Z,2.50
2018-12-05T03:58:19.258Z,2.60
2018-12-05T04:00:47.489Z,2.60
2018-12-05T04:03:15.744Z,2.60
2018-12-05T04:05:44.028Z,2.70
2018-12-05T04:08:24.328Z,2.70
2018-12-05T04:10:54.365Z,2.70
2018-12-05T04:16:28.319Z,2.50
2018-12-05T04:19:00.125Z,2.50
2018-12-05T04:21:34.162Z,2.40
2018-12-05T04:24:04.518Z,2.40
2018-12-05T04:26:41.052Z,2.30
2018-12-05T04:29:15.631Z,2.40
2018-12-05T04:37:15.948Z,2.60
2018-12-05T04:39:44.197Z,2.60
2018-12-05T04:42:17.956Z,2.60
2018-12-05T04:44:49.694Z,2.60
2018-12-05T04:47:40.370Z,2.60
2018-12-05T04:50:18.584Z,2.50
2018-12-05T04:55:31.666Z,2.50
2018-12-05T04:58:03.893Z,2.30
2018-12-05T05:00:37.558Z,2.30
2018-12-05T05:03:09.473Z,2.40
2018-12-05T05:06:00.330Z,2.30
2018-12-05T05:08:32.336Z,2.40
2018-12-05T05:11:07.306Z,2.40
2018-12-05T05:16:40.695Z,2.60
2018-12-05T05:19:13.026Z,2.50
2018-12-05T05:21:53.595Z,2.60
2018-12-05T05:24:29.228Z,2.70
2018-12-05T05:30:04.895Z,2.80
2018-12-05T05:35:32.397Z,3.00
2018-12-05T05:38:08.263Z,3.10
2018-12-05T05:40:42.686Z,3.10
2018-12-05T05:43:16.849Z,3.10
2018-12-05T05:45:47.676Z,3.20
2018-12-05T05:48:29.760Z,3.20
2018-12-05T05:50:58.641Z,3.20
2018-12-05T05:53:33.341Z,3.20
2018-12-05T05:56:10.222Z,3.30
2018-12-05T05:58:43.995Z,3.10
2018-12-05T06:09:53.872Z,3.30
2018-12-05T06:12:25.058Z,3.30
2018-12-05T06:15:16.403Z,3.30
2018-12-05T06:20:45.286Z,3.50
2018-12-05T06:23:16.226Z,3.50
2018-12-05T06:25:50.453Z,3.60
2018-12-05T06:28:22.805Z,3.70
2018-12-05T06:31:14.137Z,3.80
2018-12-05T06:33:48.608Z,3.90
2018-12-05T06:36:23.489Z,3.90
2018-12-05T06:38:53.375Z,4.00
2018-12-05T06:44:15.516Z,3.80
2018-12-05T06:46:44.126Z,3.80
2018-12-05T06:49:12.889Z,3.80
2018-12-05T06:51:41.492Z,3.70
2018-12-05T06:54:09.999Z,3.90
2018-12-05T06:56:39.552Z,4.00
2018-12-05T06:59:12.309Z,4.10
2018-12-05T07:01:41.972Z,4.00
2018-12-05T07:04:13.379Z,4.00
2018-12-05T07:09:50.899Z,4.10
2018-12-05T07:12:24.703Z,4.10
2018-12-05T07:17:51.145Z,4.20
2018-12-05T07:20:26.147Z,4.30
2018-12-05T07:26:04.673Z,4.30
2018-12-05T07:28:44.606Z,4.40
2018-12-05T07:31:19.797Z,4.50
2018-12-05T07:33:58.147Z,4.30
2018-12-05T07:36:31.669Z,4.30
2018-12-05T07:39:03.074Z,4.50
2018-12-05T07:41:33.435Z,4.50
2018-12-05T07:47:10.918Z,4.60
2018-12-05T07:52:48.518Z,4.70
2018-12-05T07:55:26.735Z,4.80
2018-12-05T07:58:12.594Z,4.70
2018-12-05T08:00:43.818Z,4.70
2018-12-05T08:03:15.108Z,4.70
2018-12-05T08:05:56.426Z,4.70
2018-12-05T08:14:12.889Z,4.80
2018-12-05T08:16:44.531Z,4.90
2018-12-05T08:19:18.399Z,5.00
2018-12-05T08:21:48.413Z,5.10
2018-12-05T08:24:24.578Z,5.20
2018-12-05T08:26:56.331Z,5.30
2018-12-05T08:29:46.858Z,5.40
2018-12-05T08:32:16.358Z,5.50
2018-12-05T08:34:50.525Z,5.30
2018-12-05T08:37:37.876Z,5.40
2018-12-05T08:46:03.034Z,5.50
2018-12-05T08:56:55.140Z,6.00
2018-12-05T09:30:21.200Z,6.40
2018-12-05T09:32:51.933Z,6.40
2018-12-05T09:35:20.224Z,6.30
2018-12-05T09:37:48.739Z,6.50
2018-12-05T09:40:20.737Z,6.50
2018-12-05T09:43:01.087Z,6.60
2018-12-05T09:45:29.371Z,6.70
2018-12-05T09:47:58.171Z,6.60
2018-12-05T09:50:26.432Z,6.60
2018-12-05T09:52:54.801Z,6.80
2018-12-05T09:55:33.741Z,6.80
2018-12-05T09:58:07.854Z,6.90
2018-12-05T10:00:36.344Z,6.90
2018-12-05T10:03:04.781Z,7.00
2018-12-05T10:05:33.685Z,6.80
2018-12-05T10:08:06.047Z,6.80
2018-12-05T10:13:35.342Z,7.00
2018-12-05T10:16:16.218Z,7.10
2018-12-05T10:18:49.788Z,7.10
2018-12-05T10:27:34.944Z,7.10
2018-12-05T10:58:14.330Z,7.60
2018-12-05T11:01:01.577Z,7.70
2018-12-05T15:49:43.401Z,8.40
2018-12-05T15:52:14.017Z,8.30
2018-12-05T15:54:42.777Z,8.50
2018-12-05T15:57:11.409Z,8.40
2018-12-05T15:59:40.395Z,8.50
2018-12-05T16:02:09.111Z,8.50
2018-12-05T16:04:37.921Z,8.30
2018-12-05T16:07:06.517Z,8.30
2018-12-05T16:09:34.854Z,8.20
2018-12-05T16:12:04.001Z,8.30
2018-12-05T16:14:32.909Z,8.20
2018-12-05T16:17:01.890Z,7.90
2018-12-05T16:19:32.012Z,8.10
2018-12-05T16:22:02.253Z,8.20
2018-12-05T16:24:32.250Z,8.20
2018-12-05T16:48:53.612Z,8.40
2018-12-05T16:51:28.542Z,8.30
2018-12-05T16:53:58.485Z,8.30
2018-12-05T16:56:34.979Z,8.40
2018-12-05T16:59:25.733Z,8.40
2018-12-05T17:02:06.855Z,8.40
2018-12-05T17:07:17.181Z,8.30
2018-12-05T17:09:50.100Z,8.30
2018-12-05T17:12:24.473Z,8.30
2018-12-05T17:14:53.788Z,8.30
2018-12-05T17:17:29.916Z,8.30
2018-12-05T17:20:08.838Z,8.40
2018-12-05T17:22:43.883Z,8.50
2018-12-05T17:25:16.908Z,8.60
2018-12-05T17:30:48.203Z,8.40
2018-12-05T17:33:30.002Z,8.40
2018-12-05T17:36:03.941Z,8.60
2018-12-05T17:38:34.697Z,8.70
2018-12-05T17:41:11.596Z,8.70
2018-12-05T17:43:46.175Z,8.70
2018-12-05T17:46:21.552Z,8.50
2018-12-05T17:48:56.915Z,8.40
2018-12-05T17:59:43.910Z,8.60
2018-12-05T18:02:17.556Z,8.60
2018-12-05T18:04:52.459Z,8.40
2018-12-05T18:07:35.179Z,8.60
2018-12-05T18:10:17.432Z,8.50
2018-12-05T18:12:50.091Z,8.50
2018-12-05T18:15:43.599Z,8.30
2018-12-05T18:18:21.923Z,8.40
2018-12-05T18:21:04.702Z,8.30
2018-12-05T18:23:36.966Z,8.40
2018-12-05T18:29:27.774Z,8.50
2018-12-05T18:32:08.226Z,8.40
2018-12-05T18:35:03.372Z,8.30
2018-12-05T18:37:37.684Z,8.30
2018-12-05T18:40:17.580Z,8.30
2018-12-05T18:45:25.655Z,8.30
2018-12-05T18:48:12.833Z,8.40
2018-12-05T18:50:42.414Z,8.50
2018-12-05T18:53:14.397Z,8.60
2018-12-05T18:55:47.081Z,8.60
2018-12-05T18:58:18.563Z,8.60
2018-12-05T19:00:59.140Z,8.50
2018-12-05T19:03:29.257Z,8.40
2018-12-05T19:05:58.402Z,8.40
2018-12-05T19:08:34.375Z,8.50
2018-12-05T19:11:14.138Z,8.50
2018-12-05T19:13:56.652Z,8.40
2018-12-05T19:16:29.744Z,8.40
2018-12-05T19:19:00.539Z,8.70
2018-12-05T19:21:31.007Z,8.50
2018-12-05T19:24:04.996Z,8.50
2018-12-05T19:26:42.969Z,8.70
2018-12-05T19:29:15.822Z,8.60
2018-12-05T19:31:49.254Z,8.40
2018-12-05T19:34:31.512Z,8.50
2018-12-05T19:37:00.735Z,8.50
2018-12-05T19:39:35.664Z,8.60
2018-12-05T19:42:06.095Z,8.60
2018-12-05T19:45:13.370Z,8.50
2018-12-05T19:47:44.942Z,8.60
2018-12-05T19:50:16.017Z,8.60
2018-12-05T19:53:01.023Z,8.60
2018-12-05T19:55:35.727Z,8.40
2018-12-05T19:58:08.129Z,8.40
2018-12-05T20:00:40.432Z,8.40
2018-12-05T20:03:28.244Z,8.40
2018-12-05T20:06:00.814Z,8.50
2018-12-05T20:08:32.490Z,8.50
2018-12-05T20:15:50.121Z,8.70
2018-12-05T20:18:23.652Z,8.60
2018-12-05T20:21:18.280Z,8.70
2018-12-05T20:23:56.793Z,8.70
2018-12-05T20:26:29.096Z,8.80
2018-12-05T20:31:39.859Z,9.00
2018-12-05T20:34:30.717Z,8.90
2018-12-05T20:37:20.491Z,8.70
2018-12-05T20:39:51.893Z,8.60
2018-12-05T20:42:20.229Z,8.70
2018-12-05T20:44:48.974Z,8.80
2018-12-05T20:47:18.212Z,8.50
2018-12-05T20:49:47.441Z,8.40
2018-12-05T20:52:16.594Z,8.40
2018-12-05T20:54:46.400Z,8.40
2018-12-05T20:57:17.771Z,8.50
2018-12-05T20:59:51.962Z,8.60
2018-12-05T21:02:23.302Z,8.60
2018-12-05T21:07:33.122Z,8.50
2018-12-05T21:10:06.861Z,8.50
2018-12-05T21:12:40.721Z,8.60
2018-12-05T21:15:16.771Z,8.70
2018-12-05T21:20:25.728Z,8.70
2018-12-05T21:22:59.348Z,8.60
2018-12-05T21:25:33.179Z,8.60
2018-12-05T21:28:02.439Z,8.80
2018-12-05T21:30:34.077Z,8.90
2018-12-05T21:33:19.639Z,8.80
2018-12-05T21:35:54.552Z,8.80
2018-12-05T21:38:37.509Z,8.70
2018-12-05T21:41:08.516Z,8.80
2018-12-05T21:43:54.185Z,8.90
2018-12-05T21:46:24.802Z,8.90
2018-12-05T21:48:57.664Z,8.90
2018-12-05T21:51:31.688Z,9.00
2018-12-05T21:54:06.181Z,8.80
2018-12-05T21:56:38.434Z,8.70
2018-12-05T22:06:24.045Z,8.40
2018-12-05T22:08:52.490Z,8.60
2018-12-05T22:11:28.106Z,8.60
2018-12-05T22:14:10.192Z,8.70
2018-12-05T22:16:46.767Z,8.70
2018-12-05T22:19:23.177Z,8.80
2018-12-05T22:22:00.848Z,8.70
2018-12-05T22:24:52.891Z,8.60
2018-12-05T22:27:31.975Z,8.60
2018-12-05T22:30:08.994Z,8.60
2018-12-05T22:32:51.610Z,8.60
2018-12-05T22:35:25.246Z,8.50
2018-12-05T22:37:53.962Z,8.60
2018-12-05T22:40:31.372Z,8.70
2018-12-05T22:43:02.187Z,8.70
2018-12-05T22:45:36.667Z,8.80
2018-12-05T22:48:13.373Z,8.60
2018-12-05T22:50:47.889Z,8.50
2018-12-05T22:53:19.970Z,8.60
2018-12-05T22:55:48.596Z,8.50
2018-12-05T22:58:17.124Z,8.50
2018-12-05T23:00:50.379Z,8.50
2018-12-05T23:09:20.360Z,8.50
2018-12-05T23:11:48.928Z,8.30
2018-12-05T23:14:17.219Z,8.40
2018-12-05T23:16:45.599Z,8.50
2018-12-05T23:19:14.233Z,8.50
2018-12-05T23:21:42.902Z,8.40
2018-12-05T23:24:11.170Z,8.40
2018-12-05T23:26:39.441Z,8.40
2018-12-05T23:29:07.985Z,8.50
2018-12-05T23:40:44.164Z,8.30
2018-12-05T23:43:12.707Z,8.40
2018-12-05T23:45:41.037Z,8.30
2018-12-05T23:48:10.186Z,8.40
2018-12-05T23:50:44.323Z,8.60
2018-12-05T23:53:13.420Z,8.80
2018-12-05T23:55:41.888Z,8.70
2018-12-05T23:58:10.279Z,8.80
